Time;durP1;ratioP1;P1;durP2;ratioP2;P2;SDS_P1;SDS_P2;PMS_P1;PMS_P2;Temp;Humidity;BMP_temperature;BMP_pressure;BME280_temperature;BME280_humidity;BME280_pressure;Samples;Min_cycle;Max_cycle;Signal;HPM_P1;HPM_P2
2023/12/11 00:01:54;;;;;;;;;;;10.70;99.90;;;;;;5070778;28;19924;-65
2023/12/11 00:04:21;;;;;;;;;;;10.70;99.90;;;;;;5069497;28;19925;-66
2023/12/11 00:06:48;;;;;;;;;;;10.70;99.90;;;;;;5069656;28;19925;-66
2023/12/11 00:09:16;;;;;;;;;;;10.70;99.90;;;;;;5060635;28;20533;-66
2023/12/11 00:11:43;;;;;;;;;;;10.60;99.90;;;;;;5071589;28;19932;-66
2023/12/11 00:14:10;;;;;;;;;;;10.70;99.90;;;;;;5069773;28;19943;-67
2023/12/11 00:16:37;;;;;;;;;;;10.70;99.90;;;;;;5069864;28;20323;-66
2023/12/11 00:19:04;;;;;;;;;;;10.70;99.90;;;;;;5068056;28;19931;-66
2023/12/11 00:21:31;;;;;;;;;;;10.80;99.90;;;;;;5070346;28;20383;-66
2023/12/11 00:23:58;;;;;;;;;;;10.80;99.90;;;;;;5081890;28;19982;-66
2023/12/11 00:26:26;;;;;;;;;;;10.80;99.90;;;;;;5074790;28;19932;-66
2023/12/11 00:28:53;;;;;;;;;;;10.90;99.90;;;;;;5072836;28;19978;-66
2023/12/11 00:31:20;;;;;;;;;;;10.90;99.90;;;;;;5071877;28;20023;-65
2023/12/11 00:33:46;;;;;;;;;;;10.90;99.90;;;;;;5074038;28;20399;-66
2023/12/11 00:36:13;;;;;;;;;;;10.90;99.90;;;;;;5086725;28;20265;-66
2023/12/11 00:38:39;;;;;;;;;;;10.80;99.90;;;;;;5073440;28;19931;-66
2023/12/11 00:41:08;;;;;;;;;;;10.80;99.90;;;;;;5072327;28;19924;-67
2023/12/11 00:43:36;;;;;;;;;;;10.80;99.90;;;;;;5074156;28;19924;-67
2023/12/11 00:46:03;;;;;;;;;;;10.80;99.90;;;;;;5069586;28;19936;-66
2023/12/11 00:48:33;;;;;;;;;;;10.80;99.90;;;;;;5074083;28;19932;-66
2023/12/11 00:51:00;;;;;;;;;;;10.80;99.90;;;;;;5075288;28;20433;-66
2023/12/11 00:53:27;;;;;;;;;;;10.80;99.90;;;;;;5071055;28;20380;-66
2023/12/11 00:55:54;;;;;;;;;;;10.80;99.90;;;;;;5073062;28;19931;-66
2023/12/11 00:58:21;;;;;;;;;;;10.80;99.90;;;;;;5072740;28;19925;-66
2023/12/11 01:00:49;;;;;;;;;;;10.90;99.90;;;;;;5073333;28;19928;-66
2023/12/11 01:03:16;;;;;;;;;;;10.70;99.90;;;;;;5071857;28;19924;-66
2023/12/11 01:05:42;;;;;;;;;;;10.80;99.90;;;;;;5071774;28;19932;-66
2023/12/11 01:08:09;;;;;;;;;;;10.80;99.90;;;;;;5080408;28;19924;-67
2023/12/11 01:10:37;;;;;;;;;;;10.80;99.90;;;;;;5071576;28;20303;-67
2023/12/11 01:13:04;;;;;;;;;;;10.70;99.90;;;;;;5072454;28;19924;-65
2023/12/11 01:15:30;;;;;;;;;;;10.70;99.90;;;;;;5073251;28;19954;-65
2023/12/11 01:17:58;;;;;;;;;;;10.70;99.90;;;;;;5071616;28;19924;-65
2023/12/11 01:20:25;;;;;;;;;;;10.80;99.90;;;;;;5070520;28;20367;-65
2023/12/11 01:22:52;;;;;;;;;;;10.70;99.90;;;;;;5067544;28;19928;-66
2023/12/11 01:25:19;;;;;;;;;;;10.70;99.90;;;;;;5071162;28;19974;-66
2023/12/11 01:27:46;;;;;;;;;;;10.70;99.90;;;;;;5070142;28;19924;-67
2023/12/11 01:30:13;;;;;;;;;;;10.70;99.90;;;;;;5072595;28;19999;-67
2023/12/11 01:32:39;;;;;;;;;;;10.70;99.90;;;;;;5072165;28;19925;-66
2023/12/11 01:35:08;;;;;;;;;;;10.60;99.90;;;;;;5071873;28;20299;-67
2023/12/11 01:37:35;;;;;;;;;;;10.60;99.90;;;;;;5071248;28;19924;-66
2023/12/11 01:40:05;;;;;;;;;;;10.60;99.90;;;;;;5070404;28;20011;-67
2023/12/11 01:42:33;;;;;;;;;;;10.70;99.90;;;;;;5072081;28;19924;-66
2023/12/11 01:45:00;;;;;;;;;;;10.70;99.90;;;;;;5071703;28;20403;-66
2023/12/11 01:47:27;;;;;;;;;;;10.80;99.90;;;;;;5069924;28;19924;-66
2023/12/11 01:49:54;;;;;;;;;;;10.70;99.90;;;;;;5070754;28;19925;-66
2023/12/11 01:52:22;;;;;;;;;;;10.70;99.90;;;;;;5071245;28;19924;-66
2023/12/11 01:54:49;;;;;;;;;;;10.70;99.90;;;;;;5072418;28;19928;-66
2023/12/11 01:57:16;;;;;;;;;;;10.70;99.90;;;;;;5071285;28;20368;-66
2023/12/11 01:59:43;;;;;;;;;;;10.70;99.90;;;;;;5072987;28;20019;-68
2023/12/11 02:02:10;;;;;;;;;;;10.70;99.90;;;;;;5072108;28;19924;-67
2023/12/11 02:04:37;;;;;;;;;;;10.70;99.90;;;;;;5070864;28;20387;-66
2023/12/11 02:07:04;;;;;;;;;;;10.80;99.90;;;;;;5071637;28;19940;-67
2023/12/11 02:09:32;;;;;;;;;;;10.80;99.90;;;;;;5071540;28;20438;-66
2023/12/11 02:11:59;;;;;;;;;;;10.80;99.90;;;;;;5070475;28;20405;-66
2023/12/11 02:14:25;;;;;;;;;;;10.80;99.90;;;;;;5071686;28;20346;-66
2023/12/11 02:16:52;;;;;;;;;;;11.00;99.90;;;;;;5071297;28;19929;-66
2023/12/11 02:19:19;;;;;;;;;;;10.70;99.90;;;;;;5070664;28;19932;-66
2023/12/11 02:21:46;;;;;;;;;;;10.70;99.90;;;;;;5071372;28;20452;-66
2023/12/11 02:24:16;;;;;;;;;;;10.70;99.90;;;;;;5070788;28;19954;-66
2023/12/11 02:26:44;;;;;;;;;;;10.70;99.90;;;;;;5070862;28;19924;-66
2023/12/11 02:29:11;;;;;;;;;;;10.60;99.90;;;;;;5069552;28;20383;-66
2023/12/11 02:31:38;;;;;;;;;;;10.50;99.90;;;;;;5071131;28;19924;-66
2023/12/11 02:34:05;;;;;;;;;;;10.40;99.90;;;;;;5088079;28;20416;-66
2023/12/11 02:36:32;;;;;;;;;;;10.30;99.90;;;;;;5071234;28;20019;-66
2023/12/11 02:38:59;;;;;;;;;;;10.30;99.90;;;;;;5065462;28;20399;-65
2023/12/11 02:41:25;;;;;;;;;;;10.30;99.90;;;;;;5069325;28;19928;-66
2023/12/11 02:43:54;;;;;;;;;;;10.30;99.90;;;;;;5069700;28;20286;-65
2023/12/11 02:46:20;;;;;;;;;;;10.30;99.90;;;;;;5069768;28;20383;-66
2023/12/11 02:48:47;;;;;;;;;;;10.30;99.90;;;;;;5070375;28;19978;-66
2023/12/11 02:51:15;;;;;;;;;;;10.30;99.90;;;;;;5090183;28;19977;-65
2023/12/11 02:53:42;;;;;;;;;;;10.30;99.90;;;;;;5070690;28;19931;-65
2023/12/11 02:56:09;;;;;;;;;;;10.40;99.90;;;;;;5071171;28;19936;-66
2023/12/11 02:58:36;;;;;;;;;;;10.40;99.90;;;;;;5069071;28;19978;-66
2023/12/11 03:01:04;;;;;;;;;;;10.40;99.90;;;;;;5071372;28;19931;-66
2023/12/11 03:03:31;;;;;;;;;;;10.40;99.90;;;;;;5068392;28;19928;-66
2023/12/11 03:05:58;;;;;;;;;;;10.40;99.90;;;;;;5068575;28;20371;-66
2023/12/11 03:08:25;;;;;;;;;;;10.50;99.90;;;;;;5070566;28;20346;-66
2023/12/11 03:10:51;;;;;;;;;;;10.40;99.90;;;;;;5070738;28;19924;-66
2023/12/11 03:13:18;;;;;;;;;;;10.50;99.90;;;;;;5069300;28;20445;-66
2023/12/11 03:15:45;;;;;;;;;;;10.40;99.90;;;;;;5068943;28;19932;-66
2023/12/11 03:18:13;;;;;;;;;;;10.50;99.90;;;;;;5051558;28;19925;-65
2023/12/11 03:20:40;;;;;;;;;;;10.40;99.90;;;;;;5069404;28;19977;-65
2023/12/11 03:23:07;;;;;;;;;;;10.30;99.90;;;;;;5068168;28;20437;-66
2023/12/11 03:25:34;;;;;;;;;;;10.30;99.90;;;;;;5070658;28;19928;-66
2023/12/11 03:28:00;;;;;;;;;;;10.30;99.90;;;;;;5070172;28;20260;-66
2023/12/11 03:30:27;;;;;;;;;;;10.20;99.90;;;;;;5071831;28;19929;-65
2023/12/11 03:32:54;;;;;;;;;;;10.20;99.90;;;;;;5069895;28;20383;-66
2023/12/11 03:35:22;;;;;;;;;;;10.20;99.90;;;;;;5063705;28;19925;-66
2023/12/11 03:37:49;;;;;;;;;;;10.20;99.90;;;;;;5069415;28;20372;-66
2023/12/11 03:40:16;;;;;;;;;;;10.20;99.90;;;;;;5070988;28;19924;-65
2023/12/11 03:42:42;;;;;;;;;;;10.20;99.90;;;;;;5071252;28;19932;-66
2023/12/11 03:45:09;;;;;;;;;;;10.20;99.90;;;;;;5069780;28;19932;-66
2023/12/11 03:47:36;;;;;;;;;;;10.20;99.90;;;;;;5070874;28;19925;-66
2023/12/11 03:50:03;;;;;;;;;;;10.20;99.90;;;;;;5069930;28;19924;-65
2023/12/11 03:52:31;;;;;;;;;;;10.10;99.90;;;;;;5071068;28;20359;-65
2023/12/11 03:54:58;;;;;;;;;;;10.10;99.90;;;;;;5071331;28;19978;-66
2023/12/11 03:57:25;;;;;;;;;;;10.10;99.90;;;;;;5074246;28;19930;-66
2023/12/11 03:59:52;;;;;;;;;;;10.20;99.90;;;;;;5073785;28;20417;-66
2023/12/11 04:02:19;;;;;;;;;;;10.20;99.90;;;;;;5074889;28;20349;-66
2023/12/11 04:04:45;;;;;;;;;;;10.20;99.90;;;;;;5073021;28;20338;-66
2023/12/11 04:07:12;;;;;;;;;;;10.20;99.90;;;;;;5074222;28;20397;-65
2023/12/11 04:09:40;;;;;;;;;;;10.20;99.90;;;;;;5071584;28;19925;-66
2023/12/11 04:12:07;;;;;;;;;;;10.30;99.90;;;;;;5073666;28;19931;-67
2023/12/11 04:14:34;;;;;;;;;;;10.30;99.90;;;;;;5075136;28;19928;-67
2023/12/11 04:17:01;;;;;;;;;;;10.40;99.90;;;;;;5074172;28;19924;-67
2023/12/11 04:19:28;;;;;;;;;;;10.40;99.90;;;;;;5072665;28;19932;-67
2023/12/11 04:21:55;;;;;;;;;;;10.40;99.90;;;;;;5063675;28;20594;-67
2023/12/11 04:24:22;;;;;;;;;;;10.40;99.90;;;;;;5067474;28;19925;-66
2023/12/11 04:26:50;;;;;;;;;;;10.40;99.90;;;;;;5072334;28;19998;-66
2023/12/11 04:29:17;;;;;;;;;;;10.30;99.90;;;;;;5072414;28;19955;-67
2023/12/11 04:31:44;;;;;;;;;;;10.30;99.90;;;;;;5077581;28;20383;-67
2023/12/11 04:34:10;;;;;;;;;;;10.40;99.90;;;;;;5073708;28;19970;-67
2023/12/11 04:36:37;;;;;;;;;;;10.40;99.90;;;;;;5073356;28;19925;-66
2023/12/11 04:39:04;;;;;;;;;;;10.40;99.90;;;;;;5072235;28;19970;-66
2023/12/11 04:41:31;;;;;;;;;;;10.50;99.90;;;;;;5085893;28;19924;-66
2023/12/11 04:43:59;;;;;;;;;;;10.50;99.90;;;;;;5073734;28;19931;-67
2023/12/11 04:46:26;;;;;;;;;;;10.60;99.90;;;;;;5071749;28;19939;-66
2023/12/11 04:48:53;;;;;;;;;;;10.70;99.90;;;;;;5073368;28;19932;-66
2023/12/11 04:51:20;;;;;;;;;;;10.70;99.90;;;;;;5073815;28;19924;-67
2023/12/11 04:53:47;;;;;;;;;;;10.70;99.90;;;;;;5072763;28;19928;-66
2023/12/11 04:56:14;;;;;;;;;;;10.70;99.90;;;;;;5068025;28;19952;-66
2023/12/11 04:58:40;;;;;;;;;;;10.80;99.90;;;;;;5065559;28;20338;-66
2023/12/11 05:01:09;;;;;;;;;;;10.90;99.90;;;;;;5072250;28;19928;-66
2023/12/11 05:03:35;;;;;;;;;;;11.00;99.90;;;;;;5073806;28;19993;-66
2023/12/11 05:06:02;;;;;;;;;;;11.00;99.90;;;;;;5082912;28;19924;-67
2023/12/11 05:08:29;;;;;;;;;;;11.00;99.90;;;;;;5078430;28;19929;-66
2023/12/11 05:10:56;;;;;;;;;;;11.10;99.90;;;;;;5061754;28;20276;-66
2023/12/11 05:13:22;;;;;;;;;;;11.10;99.90;;;;;;5073340;28;20338;-66
2023/12/11 05:15:49;;;;;;;;;;;11.20;99.90;;;;;;5074184;28;19928;-65
2023/12/11 05:18:17;;;;;;;;;;;11.10;99.90;;;;;;5072566;28;20309;-66
2023/12/11 05:20:44;;;;;;;;;;;11.10;99.90;;;;;;5071103;28;19924;-66
2023/12/11 05:23:11;;;;;;;;;;;11.10;99.90;;;;;;5073826;28;19925;-66
2023/12/11 05:25:38;;;;;;;;;;;11.10;99.90;;;;;;5071769;28;19928;-66
2023/12/11 05:28:05;;;;;;;;;;;11.00;99.90;;;;;;5068442;28;19931;-66
2023/12/11 05:30:32;;;;;;;;;;;11.00;99.90;;;;;;5071337;28;19925;-66
2023/12/11 05:32:59;;;;;;;;;;;11.00;99.90;;;;;;5056144;28;19998;-66
2023/12/11 05:35:27;;;;;;;;;;;11.00;99.90;;;;;;5072018;28;19924;-66
2023/12/11 05:37:57;;;;;;;;;;;11.00;99.90;;;;;;5059234;28;19924;-66
2023/12/11 05:40:23;;;;;;;;;;;11.10;99.90;;;;;;5078265;28;19931;-66
2023/12/11 05:42:50;;;;;;;;;;;11.00;99.90;;;;;;5089819;28;19931;-66
2023/12/11 05:45:17;;;;;;;;;;;11.10;99.90;;;;;;5071430;28;19933;-66
2023/12/11 05:47:44;;;;;;;;;;;11.10;99.90;;;;;;5070978;28;20383;-66
2023/12/11 05:50:12;;;;;;;;;;;11.10;99.90;;;;;;5072149;28;19924;-66
2023/12/11 05:52:40;;;;;;;;;;;11.10;99.90;;;;;;5063852;28;19924;-67
2023/12/11 05:55:07;;;;;;;;;;;11.10;99.90;;;;;;5070380;28;20054;-66
2023/12/11 05:57:34;;;;;;;;;;;11.10;99.90;;;;;;5083584;28;19924;-66
2023/12/11 06:00:00;;;;;;;;;;;11.10;99.90;;;;;;5069859;28;19986;-66
2023/12/11 06:02:27;;;;;;;;;;;11.10;99.90;;;;;;5070581;28;19924;-65
2023/12/11 06:04:54;;;;;;;;;;;11.10;99.90;;;;;;5069410;28;20375;-64
2023/12/11 06:07:21;;;;;;;;;;;11.10;99.90;;;;;;5068632;28;19925;-65
2023/12/11 06:09:49;;;;;;;;;;;11.10;99.90;;;;;;5072090;28;19975;-65
2023/12/11 06:12:16;;;;;;;;;;;11.10;99.90;;;;;;5045062;22;19929;-65
2023/12/11 06:14:43;;;;;;;;;;;11.10;99.90;;;;;;5041832;28;20012;-65
2023/12/11 06:17:10;;;;;;;;;;;11.10;99.90;;;;;;5029825;28;20384;-65
2023/12/11 06:19:41;;;;;;;;;;;11.10;99.90;;;;;;5028504;28;19925;-65
2023/12/11 06:22:08;;;;;;;;;;;11.00;99.90;;;;;;5031609;28;19926;-64
2023/12/11 06:24:35;;;;;;;;;;;11.00;99.90;;;;;;5031233;28;19960;-65
2023/12/11 06:27:03;;;;;;;;;;;11.00;99.90;;;;;;5024889;28;19979;-66
2023/12/11 06:29:30;;;;;;;;;;;11.10;99.90;;;;;;5028497;28;20008;-65
2023/12/11 06:31:57;;;;;;;;;;;11.10;99.90;;;;;;5027796;28;19928;-65
2023/12/11 06:34:24;;;;;;;;;;;11.10;99.90;;;;;;5030416;28;19932;-65
2023/12/11 06:36:51;;;;;;;;;;;11.10;99.90;;;;;;5030534;28;20272;-65
2023/12/11 06:39:19;;;;;;;;;;;11.10;99.90;;;;;;5027120;28;20525;-66
2023/12/11 06:41:46;;;;;;;;;;;11.10;99.90;;;;;;5027883;28;19925;-66
2023/12/11 06:44:14;;;;;;;;;;;11.10;99.90;;;;;;5023144;28;19937;-67
2023/12/11 06:46:41;;;;;;;;;;;11.10;99.90;;;;;;5024441;28;19932;-70
2023/12/11 06:49:08;;;;;;;;;;;11.10;99.90;;;;;;5024622;28;20354;-71
2023/12/11 06:51:37;;;;;;;;;;;11.10;99.90;;;;;;5018395;28;20311;-71
2023/12/11 06:54:04;;;;;;;;;;;11.10;99.90;;;;;;5018222;28;19925;-73
2023/12/11 06:56:31;;;;;;;;;;;11.10;99.90;;;;;;5029489;28;20377;-71
2023/12/11 06:58:58;;;;;;;;;;;11.00;99.90;;;;;;5024750;28;19976;-71
2023/12/11 07:01:28;;;;;;;;;;;11.10;99.90;;;;;;5027833;28;19925;-71
2023/12/11 07:03:55;;;;;;;;;;;11.10;99.90;;;;;;5024447;28;19929;-71
2023/12/11 07:06:22;;;;;;;;;;;11.10;99.90;;;;;;5021385;28;20430;-71
2023/12/11 07:08:48;;;;;;;;;;;11.10;99.90;;;;;;5022482;28;20339;-73
2023/12/11 07:11:15;;;;;;;;;;;11.10;99.90;;;;;;5027724;28;19999;-74
2023/12/11 07:13:42;;;;;;;;;;;11.10;99.90;;;;;;5029834;28;19929;-73
2023/12/11 07:16:09;;;;;;;;;;;11.10;99.90;;;;;;5023312;28;19929;-72
2023/12/11 07:18:38;;;;;;;;;;;11.10;99.90;;;;;;5026291;28;19941;-71
2023/12/11 07:21:08;;;;;;;;;;;11.10;99.90;;;;;;5018182;28;19933;-70
2023/12/11 07:23:35;;;;;;;;;;;11.10;99.90;;;;;;5029033;28;19925;-72
2023/12/11 07:26:04;;;;;;;;;;;11.10;99.90;;;;;;5025123;28;19933;-69
2023/12/11 07:28:31;;;;;;;;;;;11.10;99.90;;;;;;5027028;28;20467;-70
2023/12/11 07:30:58;;;;;;;;;;;11.10;99.90;;;;;;5026525;28;19936;-69
2023/12/11 07:33:25;;;;;;;;;;;11.10;99.90;;;;;;5028473;28;19929;-72
2023/12/11 07:35:54;;;;;;;;;;;11.10;99.90;;;;;;5033359;28;19929;-73
2023/12/11 07:38:25;;;;;;;;;;;11.10;99.90;;;;;;5034768;28;19971;-74
2023/12/11 07:40:52;;;;;;;;;;;11.10;99.90;;;;;;5028699;28;19925;-74
2023/12/11 07:43:19;;;;;;;;;;;11.10;99.90;;;;;;5018503;28;19965;-74
2023/12/11 07:45:46;;;;;;;;;;;11.10;99.90;;;;;;5031352;28;19925;-73
2023/12/11 07:48:15;;;;;;;;;;;11.10;99.90;;;;;;5029779;28;19960;-73
2023/12/11 07:50:42;;;;;;;;;;;11.10;99.90;;;;;;5021432;28;19932;-70
2023/12/11 07:53:11;;;;;;;;;;;11.00;99.90;;;;;;5024062;28;20281;-70
2023/12/11 07:55:37;;;;;;;;;;;11.10;99.90;;;;;;5033814;28;20018;-71
2023/12/11 07:58:04;;;;;;;;;;;11.00;99.90;;;;;;5031732;28;19979;-70
2023/12/11 08:00:31;;;;;;;;;;;11.00;99.90;;;;;;5028731;28;19941;-70
2023/12/11 08:02:58;;;;;;;;;;;11.00;99.90;;;;;;5028880;28;19925;-71
2023/12/11 08:05:25;;;;;;;;;;;11.00;99.90;;;;;;5032269;28;19932;-74
2023/12/11 08:07:52;;;;;;;;;;;11.00;99.90;;;;;;5030708;28;19929;-75
2023/12/11 08:10:20;;;;;;;;;;;11.00;99.90;;;;;;5032333;28;19933;-78
2023/12/11 08:12:49;;;;;;;;;;;11.00;99.90;;;;;;5031936;28;19932;-70
2023/12/11 08:15:16;;;;;;;;;;;11.00;99.90;;;;;;5030204;28;19962;-70
2023/12/11 08:17:43;;;;;;;;;;;11.00;99.90;;;;;;5031971;28;19933;-70
2023/12/11 08:20:11;;;;;;;;;;;11.00;99.90;;;;;;5032343;28;19971;-70
2023/12/11 08:22:37;;;;;;;;;;;11.10;99.90;;;;;;5032195;28;19933;-70
2023/12/11 08:25:04;;;;;;;;;;;11.00;99.90;;;;;;5032239;28;19929;-71
2023/12/11 08:27:32;;;;;;;;;;;11.00;99.90;;;;;;5032583;28;19925;-71
2023/12/11 08:29:59;;;;;;;;;;;11.00;99.90;;;;;;5034725;28;19998;-71
2023/12/11 08:32:26;;;;;;;;;;;11.00;99.90;;;;;;5030328;28;20785;-71
2023/12/11 08:34:53;;;;;;;;;;;11.10;99.90;;;;;;5032052;28;20412;-70
2023/12/11 08:37:22;;;;;;;;;;;11.10;99.90;;;;;;5026011;28;19979;-70
2023/12/11 08:39:49;;;;;;;;;;;11.10;99.90;;;;;;5029086;28;20687;-71
2023/12/11 08:42:16;;;;;;;;;;;11.10;99.90;;;;;;5026231;28;19964;-71
2023/12/11 08:44:44;;;;;;;;;;;11.10;99.90;;;;;;5031981;28;19933;-72
2023/12/11 08:47:11;;;;;;;;;;;11.10;99.90;;;;;;5031838;28;20334;-72
2023/12/11 08:49:37;;;;;;;;;;;11.00;99.90;;;;;;5031433;28;19924;-72
2023/12/11 08:52:05;;;;;;;;;;;11.10;99.90;;;;;;5032195;28;19925;-72
2023/12/11 08:54:32;;;;;;;;;;;11.10;99.90;;;;;;5032959;28;19964;-71
2023/12/11 08:56:59;;;;;;;;;;;11.10;99.90;;;;;;5032378;28;19932;-71
2023/12/11 08:59:25;;;;;;;;;;;11.10;99.90;;;;;;5026709;28;19933;-71
2023/12/11 09:01:53;;;;;;;;;;;11.10;99.90;;;;;;5031448;28;19936;-71
2023/12/11 09:04:20;;;;;;;;;;;11.10;99.90;;;;;;5030736;28;20404;-71
2023/12/11 09:06:47;;;;;;;;;;;11.10;99.90;;;;;;5030705;28;20659;-72
2023/12/11 09:09:13;;;;;;;;;;;11.10;99.90;;;;;;5030760;28;19956;-70
2023/12/11 09:11:40;;;;;;;;;;;11.10;99.90;;;;;;5031904;28;20032;-71
2023/12/11 09:14:07;;;;;;;;;;;11.00;99.90;;;;;;5029912;28;20399;-69
2023/12/11 09:16:34;;;;;;;;;;;11.00;99.90;;;;;;5018503;28;19925;-70
2023/12/11 09:19:03;;;;;;;;;;;11.10;99.90;;;;;;5031935;28;19933;-70
2023/12/11 09:21:29;;;;;;;;;;;11.00;99.90;;;;;;5026326;28;19940;-70
2023/12/11 09:23:56;;;;;;;;;;;11.10;99.90;;;;;;5025159;28;19925;-69
2023/12/11 09:26:23;;;;;;;;;;;11.10;99.90;;;;;;5027256;28;19929;-69
2023/12/11 09:28:50;;;;;;;;;;;11.10;99.90;;;;;;5031375;28;19932;-70
2023/12/11 09:31:18;;;;;;;;;;;11.10;99.90;;;;;;5025921;28;19979;-70
2023/12/11 09:33:45;;;;;;;;;;;11.10;99.90;;;;;;5032482;28;19995;-69
2023/12/11 09:36:13;;;;;;;;;;;11.10;99.90;;;;;;5031989;28;19925;-70
2023/12/11 09:38:42;;;;;;;;;;;11.10;99.90;;;;;;5032267;28;19979;-69
2023/12/11 09:41:09;;;;;;;;;;;11.10;99.90;;;;;;5028337;28;20008;-68
2023/12/11 09:43:37;;;;;;;;;;;11.10;99.90;;;;;;5030970;28;19925;-69
2023/12/11 09:46:07;;;;;;;;;;;11.10;99.90;;;;;;5030980;28;20353;-69
2023/12/11 09:48:33;;;;;;;;;;;11.10;99.90;;;;;;5025241;28;19933;-69
2023/12/11 09:51:01;;;;;;;;;;;11.10;99.90;;;;;;5029688;28;20020;-68
2023/12/11 09:53:31;;;;;;;;;;;11.20;99.90;;;;;;5026175;28;19929;-69
2023/12/11 09:55:58;;;;;;;;;;;11.10;99.90;;;;;;5029654;28;19925;-70
2023/12/11 09:58:26;;;;;;;;;;;11.10;99.90;;;;;;5031329;28;19925;-71
2023/12/11 10:00:52;;;;;;;;;;;11.10;99.90;;;;;;5030698;28;20007;-70
2023/12/11 10:03:21;;;;;;;;;;;11.10;99.90;;;;;;5019335;28;20364;-72
2023/12/11 10:05:48;;;;;;;;;;;11.00;99.90;;;;;;5033741;28;19925;-72
2023/12/11 10:08:16;;;;;;;;;;;11.00;99.90;;;;;;5028520;28;19932;-73
2023/12/11 10:10:44;;;;;;;;;;;11.00;99.90;;;;;;5028082;28;20296;-72
2023/12/11 10:13:11;;;;;;;;;;;10.90;99.90;;;;;;5030091;28;19987;-72
2023/12/11 10:15:38;;;;;;;;;;;10.90;99.90;;;;;;5031600;28;20520;-71
2023/12/11 10:18:05;;;;;;;;;;;10.90;99.90;;;;;;5031169;28;19925;-71
2023/12/11 10:20:33;;;;;;;;;;;10.90;99.90;;;;;;5023614;28;19975;-71
2023/12/11 10:23:00;;;;;;;;;;;10.90;99.90;;;;;;5028903;28;19925;-73
2023/12/11 10:25:27;;;;;;;;;;;10.90;99.90;;;;;;5022560;28;20008;-70
2023/12/11 10:28:12;;;;;;;;;;;10.90;99.90;;;;;;5018170;28;19932;-70
2023/12/11 10:30:49;;;;;;;;;;;11.00;99.90;;;;;;5029277;28;19940;-69
2023/12/11 10:33:16;;;;;;;;;;;11.00;99.90;;;;;;5030271;28;19964;-70
2023/12/11 10:35:43;;;;;;;;;;;11.00;99.90;;;;;;5029808;28;19952;-69
2023/12/11 10:38:10;;;;;;;;;;;11.10;99.90;;;;;;5028285;28;19953;-69
2023/12/11 10:40:38;;;;;;;;;;;11.10;99.90;;;;;;5029791;28;19925;-70
2023/12/11 10:43:04;;;;;;;;;;;11.10;99.90;;;;;;5028286;28;19925;-71
2023/12/11 10:45:32;;;;;;;;;;;11.20;99.90;;;;;;5026393;28;20624;-69
2023/12/11 10:48:01;;;;;;;;;;;11.20;99.90;;;;;;5028294;28;19933;-69
2023/12/11 10:50:28;;;;;;;;;;;11.20;99.90;;;;;;5029165;28;19969;-70
2023/12/11 10:52:55;;;;;;;;;;;11.20;99.90;;;;;;5025963;28;19971;-70
2023/12/11 10:55:21;;;;;;;;;;;11.20;99.90;;;;;;5029748;28;20296;-68
2023/12/11 10:57:50;;;;;;;;;;;11.20;99.90;;;;;;5030160;28;19925;-70
2023/12/11 11:00:20;;;;;;;;;;;11.20;99.90;;;;;;5027176;28;20372;-73
2023/12/11 11:02:48;;;;;;;;;;;11.20;99.90;;;;;;5027878;28;20019;-70
2023/12/11 11:05:17;;;;;;;;;;;11.20;99.90;;;;;;5027028;28;19925;-70
2023/12/11 11:07:46;;;;;;;;;;;11.20;99.90;;;;;;5028638;28;20016;-71
2023/12/11 11:10:16;;;;;;;;;;;11.20;99.90;;;;;;5027759;28;19929;-72
2023/12/11 11:12:44;;;;;;;;;;;11.30;99.90;;;;;;5013038;28;20032;-73
2023/12/11 11:15:11;;;;;;;;;;;11.30;99.90;;;;;;5022794;28;20635;-70
2023/12/11 11:17:56;;;;;;;;;;;11.30;99.90;;;;;;5027826;28;19933;-72
2023/12/11 11:20:25;;;;;;;;;;;11.30;99.90;;;;;;5023450;28;20079;-73
2023/12/11 11:22:52;;;;;;;;;;;11.40;99.90;;;;;;5028667;28;19925;-71
2023/12/11 11:25:32;;;;;;;;;;;11.40;99.90;;;;;;5030309;28;19929;-71
2023/12/11 11:27:59;;;;;;;;;;;11.40;99.90;;;;;;5031330;28;19925;-72
2023/12/11 11:30:44;;;;;;;;;;;11.50;99.90;;;;;;5030385;28;19929;-72
2023/12/11 11:33:12;;;;;;;;;;;11.50;99.90;;;;;;5011063;28;20343;-73
2023/12/11 11:35:54;;;;;;;;;;;11.50;99.90;;;;;;5019447;28;19944;-72
2023/12/11 11:38:21;;;;;;;;;;;11.50;99.90;;;;;;5032020;28;19925;-75
2023/12/11 11:40:51;;;;;;;;;;;11.50;99.90;;;;;;5021633;28;19939;-73
2023/12/11 11:43:17;;;;;;;;;;;11.60;99.90;;;;;;5018781;28;19929;-74
2023/12/11 11:45:45;;;;;;;;;;;11.70;99.90;;;;;;5028557;28;19924;-76
2023/12/11 11:48:12;;;;;;;;;;;11.80;99.90;;;;;;5022425;28;19976;-75
2023/12/11 11:50:52;;;;;;;;;;;11.80;99.90;;;;;;5023061;28;19925;-75
2023/12/11 11:53:21;;;;;;;;;;;11.80;99.90;;;;;;5026089;28;20012;-75
2023/12/11 11:55:47;;;;;;;;;;;11.90;99.90;;;;;;5031008;28;20012;-75
2023/12/11 11:58:15;;;;;;;;;;;11.90;99.90;;;;;;5028595;28;19971;-74
2023/12/11 12:00:42;;;;;;;;;;;11.80;99.90;;;;;;5026609;28;20281;-73
2023/12/11 12:03:09;;;;;;;;;;;11.90;99.90;;;;;;5027469;28;19933;-74
2023/12/11 12:05:36;;;;;;;;;;;11.80;99.90;;;;;;5022325;28;19932;-74
2023/12/11 12:08:06;;;;;;;;;;;11.80;99.90;;;;;;5026608;28;20237;-73
2023/12/11 12:10:34;;;;;;;;;;;11.70;99.90;;;;;;5027659;28;19979;-73
2023/12/11 12:13:01;;;;;;;;;;;11.80;99.90;;;;;;5027494;28;20411;-73
2023/12/11 12:15:28;;;;;;;;;;;11.80;99.90;;;;;;5023490;28;19929;-73
2023/12/11 12:18:05;;;;;;;;;;;11.80;99.90;;;;;;5027004;28;20329;-72
2023/12/11 12:20:32;;;;;;;;;;;11.90;99.90;;;;;;5019041;28;19929;-73
2023/12/11 12:22:59;;;;;;;;;;;12.00;99.90;;;;;;5030951;28;20561;-71
2023/12/11 12:25:27;;;;;;;;;;;12.00;99.90;;;;;;5032695;28;19925;-71
2023/12/11 12:27:56;;;;;;;;;;;12.00;99.90;;;;;;5033666;28;20435;-72
2023/12/11 12:30:23;;;;;;;;;;;11.90;99.90;;;;;;5034457;28;19987;-72
2023/12/11 12:32:50;;;;;;;;;;;11.90;99.90;;;;;;5033808;28;19979;-70
2023/12/11 12:35:18;;;;;;;;;;;11.90;99.90;;;;;;5021207;28;20393;-70
2023/12/11 12:37:46;;;;;;;;;;;11.90;99.90;;;;;;5024932;28;19932;-72
2023/12/11 12:40:13;;;;;;;;;;;11.80;99.90;;;;;;5023856;28;20028;-73
2023/12/11 12:42:40;;;;;;;;;;;11.80;99.90;;;;;;5027349;28;19925;-70
2023/12/11 12:45:09;;;;;;;;;;;11.80;99.90;;;;;;5019049;28;19933;-71
2023/12/11 12:47:45;;;;;;;;;;;11.80;99.90;;;;;;5012548;28;19952;-70
2023/12/11 12:50:18;;;;;;;;;;;11.90;99.90;;;;;;5011531;28;20408;-69
2023/12/11 12:52:45;;;;;;;;;;;11.80;99.90;;;;;;5012388;28;19925;-69
2023/12/11 12:55:12;;;;;;;;;;;11.80;99.90;;;;;;5025131;28;21240;-70
2023/12/11 12:57:38;;;;;;;;;;;11.80;99.90;;;;;;5012486;28;20015;-70
2023/12/11 13:00:06;;;;;;;;;;;11.80;99.90;;;;;;5007007;28;19940;-70
2023/12/11 13:02:34;;;;;;;;;;;11.70;99.90;;;;;;5004380;28;20023;-69
2023/12/11 13:05:02;;;;;;;;;;;11.70;99.90;;;;;;5011147;28;20355;-70
2023/12/11 13:07:29;;;;;;;;;;;11.70;99.90;;;;;;5008605;28;19926;-70
2023/12/11 13:09:56;;;;;;;;;;;11.60;99.90;;;;;;5006392;28;19991;-70
2023/12/11 13:12:23;;;;;;;;;;;11.60;99.90;;;;;;5007996;28;19933;-70
2023/12/11 13:14:51;;;;;;;;;;;11.60;99.90;;;;;;5016049;28;19929;-69
2023/12/11 13:17:17;;;;;;;;;;;11.60;99.90;;;;;;5006492;28;19936;-69
2023/12/11 13:19:46;;;;;;;;;;;11.50;99.90;;;;;;5002935;28;19933;-71
2023/12/11 13:22:13;;;;;;;;;;;11.40;99.90;;;;;;5008666;28;19925;-70
2023/12/11 13:24:40;;;;;;;;;;;11.40;99.90;;;;;;5023144;28;19925;-71
2023/12/11 13:27:07;;;;;;;;;;;11.40;99.90;;;;;;5013602;28;19936;-72
2023/12/11 13:29:33;;;;;;;;;;;11.40;99.90;;;;;;5010973;28;19933;-72
2023/12/11 13:32:00;;;;;;;;;;;11.40;99.90;;;;;;5014523;28;19929;-73
2023/12/11 13:34:27;;;;;;;;;;;11.40;99.90;;;;;;5024173;28;20027;-73
2023/12/11 13:36:55;;;;;;;;;;;11.40;99.90;;;;;;5024878;28;20434;-73
2023/12/11 13:39:22;;;;;;;;;;;11.30;99.90;;;;;;5023446;28;19967;-73
2023/12/11 13:41:49;;;;;;;;;;;11.40;99.90;;;;;;5031169;28;20342;-72
2023/12/11 13:44:15;;;;;;;;;;;11.40;99.90;;;;;;5025061;28;20357;-73
2023/12/11 13:46:42;;;;;;;;;;;11.40;99.90;;;;;;5031998;28;19925;-71
2023/12/11 13:49:09;;;;;;;;;;;11.40;99.90;;;;;;5015529;28;19929;-71
2023/12/11 13:51:36;;;;;;;;;;;11.40;99.90;;;;;;5019055;28;19987;-72
2023/12/11 13:54:04;;;;;;;;;;;11.40;99.90;;;;;;5014647;28;20337;-73
2023/12/11 13:56:33;;;;;;;;;;;11.50;99.90;;;;;;5018488;28;20342;-74
2023/12/11 13:58:59;;;;;;;;;;;11.40;99.90;;;;;;5023440;28;19956;-74
2023/12/11 14:01:26;;;;;;;;;;;11.50;99.90;;;;;;5021193;28;19940;-73
2023/12/11 14:03:53;;;;;;;;;;;11.50;99.90;;;;;;5008277;28;19933;-71
2023/12/11 14:06:20;;;;;;;;;;;11.50;99.90;;;;;;5010897;28;19956;-73
2023/12/11 14:08:47;;;;;;;;;;;11.50;99.90;;;;;;5009804;28;19944;-74
2023/12/11 14:11:15;;;;;;;;;;;11.40;99.90;;;;;;5018060;28;20364;-73
2023/12/11 14:13:42;;;;;;;;;;;11.50;99.90;;;;;;5010759;28;20631;-73
2023/12/11 14:16:09;;;;;;;;;;;11.40;99.90;;;;;;5015851;28;20019;-73
2023/12/11 14:18:40;;;;;;;;;;;11.40;99.90;;;;;;5011458;28;19933;-73